Jiaoxian, China
Current Conditions -  °F | °C
As of 5:00 PM on Sunday 26 Oct 2014 (Local Time) from ZSQD Reporting Station
Clear Clear  
Wind Chill: 16°   Ceiling: Unl
Heat Index: 16°   Visibility: 6mi
Dew Point: -2°   Wind: 18mph
Humidity: 29%   Direction: 360°N
Pressure: 30.18"   Gusts: NA
Location:  36.28°N, 120°E
Report Text: ZSQD 260900Z 36008MPS CAVOK 16/M02 Q1022 NOSIG
Loading
Personal Weather Stations






























Interactive Weather Map
Tropical Storm Tracking
New forecast layout! Learn more

10-Day Weather Forecast

Advertisements
Track Severe Weather on mobile